createdAt,value
2023-04-09T00:02:04.973Z,9.61
2023-04-09T00:04:33.969Z,9.68
2023-04-09T00:07:02.657Z,9.69
2023-04-09T00:09:32.328Z,9.64
2023-04-09T00:12:03.495Z,9.62
2023-04-09T00:14:32.028Z,9.70
2023-04-09T00:17:00.445Z,9.66
2023-04-09T00:19:28.894Z,9.54
2023-04-09T00:21:57.295Z,9.55
2023-04-09T00:24:26.505Z,9.43
2023-04-09T00:26:54.846Z,9.35
2023-04-09T00:29:25.230Z,9.32
2023-04-09T00:31:54.053Z,9.33
2023-04-09T00:34:22.888Z,9.34
2023-04-09T00:36:51.681Z,9.32
2023-04-09T00:39:20.175Z,9.24
2023-04-09T00:41:48.498Z,9.30
2023-04-09T00:44:17.056Z,9.28
2023-04-09T00:46:47.438Z,9.31
2023-04-09T00:49:16.199Z,9.30
2023-04-09T00:51:47.122Z,9.27
2023-04-09T00:54:16.162Z,9.26
2023-04-09T00:56:45.591Z,9.24
2023-04-09T00:59:14.658Z,9.24
2023-04-09T01:01:43.198Z,9.27
2023-04-09T01:04:13.298Z,9.30
2023-04-09T01:06:52.292Z,9.30
2023-04-09T01:09:29.623Z,9.31
2023-04-09T01:12:18.684Z,9.32
2023-04-09T01:14:55.285Z,9.36
2023-04-09T01:17:32.554Z,9.30
2023-04-09T01:20:10.713Z,9.27
2023-04-09T01:22:59.303Z,9.29
2023-04-09T01:25:49.494Z,9.40
2023-04-09T01:28:26.261Z,9.38
2023-04-09T01:31:00.734Z,9.38
2023-04-09T01:33:33.704Z,9.40
2023-04-09T01:36:05.751Z,9.37
2023-04-09T01:38:36.389Z,9.38
2023-04-09T01:41:06.274Z,9.41
2023-04-09T01:43:38.108Z,9.38
2023-04-09T01:46:06.698Z,9.38
2023-04-09T01:48:38.965Z,9.43
2023-04-09T01:51:14.204Z,9.43
2023-04-09T01:53:47.957Z,9.42
2023-04-09T01:56:22.362Z,9.41
2023-04-09T01:58:54.890Z,9.46
2023-04-09T02:01:37.531Z,9.48
2023-04-09T02:04:12.512Z,9.49
2023-04-09T02:06:46.418Z,9.51
2023-04-09T02:09:18.107Z,9.54
2023-04-09T02:11:49.867Z,9.50
2023-04-09T02:14:22.251Z,9.53
2023-04-09T02:16:50.975Z,9.51
2023-04-09T02:19:21.487Z,9.49
2023-04-09T02:21:57.662Z,9.43
2023-04-09T02:24:26.247Z,9.38
2023-04-09T02:26:55.045Z,9.37
2023-04-09T02:29:25.089Z,9.44
2023-04-09T02:31:53.720Z,9.41
2023-04-09T02:34:22.555Z,9.48
2023-04-09T02:36:51.170Z,9.50
2023-04-09T02:39:20.956Z,9.55
2023-04-09T02:41:54.273Z,9.51
2023-04-09T02:44:28.102Z,9.50
2023-04-09T02:47:09.544Z,9.45
2023-04-09T02:49:39.819Z,9.41
2023-04-09T02:52:12.209Z,9.40
2023-04-09T02:54:40.852Z,9.38
2023-04-09T02:57:09.185Z,9.39
2023-04-09T02:59:39.173Z,9.41
2023-04-09T03:02:08.286Z,9.45
2023-04-09T03:04:37.004Z,9.41
2023-04-09T03:07:06.132Z,9.42
2023-04-09T03:09:34.897Z,9.39
2023-04-09T03:12:03.585Z,9.41
2023-04-09T03:14:33.318Z,9.39
2023-04-09T03:17:05.011Z,9.41
2023-04-09T03:19:35.814Z,9.43
2023-04-09T03:22:04.462Z,9.41
2023-04-09T03:24:34.077Z,9.41
2023-04-09T03:27:05.968Z,9.40
2023-04-09T03:29:35.567Z,9.43
2023-04-09T03:32:06.138Z,9.41
2023-04-09T03:34:34.691Z,9.42
2023-04-09T03:37:15.339Z,9.40
2023-04-09T03:39:49.678Z,9.38
2023-04-09T03:42:18.517Z,9.37
2023-04-09T03:44:50.519Z,9.36
2023-04-09T03:47:28.505Z,9.31
2023-04-09T03:49:59.889Z,9.31
2023-04-09T03:52:37.412Z,9.34
2023-04-09T03:55:12.045Z,9.28
2023-04-09T03:57:40.661Z,9.25
2023-04-09T04:00:21.927Z,9.16
2023-04-09T04:03:15.034Z,9.14
2023-04-09T04:06:06.770Z,9.10
2023-04-09T04:08:54.593Z,9.03
2023-04-09T04:11:29.829Z,9.06
2023-04-09T04:13:58.951Z,8.99
2023-04-09T04:16:29.025Z,8.97
2023-04-09T04:19:01.209Z,9.00
2023-04-09T04:21:43.501Z,9.04
2023-04-09T04:24:19.837Z,9.06
2023-04-09T04:26:49.019Z,9.05
2023-04-09T04:29:21.661Z,9.10
2023-04-09T04:31:55.873Z,9.10
2023-04-09T04:34:49.858Z,9.09
2023-04-09T04:37:25.564Z,9.07
2023-04-09T04:39:58.783Z,9.12
2023-04-09T04:42:27.590Z,9.15
2023-04-09T04:44:56.547Z,9.14
2023-04-09T04:47:47.839Z,9.14
2023-04-09T04:50:25.819Z,9.15
2023-04-09T04:53:07.801Z,9.15
2023-04-09T04:58:32.478Z,9.10
2023-04-09T05:01:02.557Z,9.15
2023-04-09T05:03:30.763Z,9.17
2023-04-09T05:06:15.737Z,9.16
2023-04-09T05:08:46.453Z,9.18
2023-04-09T05:11:16.878Z,9.19
2023-04-09T05:13:48.289Z,9.13
2023-04-09T05:16:20.764Z,9.23
2023-04-09T05:18:55.063Z,9.15
2023-04-09T05:21:27.392Z,9.09
2023-04-09T05:23:57.642Z,9.09
2023-04-09T05:26:26.848Z,9.14
2023-04-09T05:28:58.615Z,9.23
2023-04-09T05:31:27.630Z,9.11
2023-04-09T05:34:21.899Z,9.09
2023-04-09T05:36:55.543Z,9.12
2023-04-09T05:39:24.942Z,9.13
2023-04-09T05:41:54.001Z,9.18
2023-04-09T05:44:51.236Z,9.10
2023-04-09T05:47:21.839Z,9.09
2023-04-09T05:50:00.055Z,9.13
2023-04-09T05:52:30.219Z,9.09
2023-04-09T05:54:59.053Z,9.18
2023-04-09T05:57:39.319Z,9.24
2023-04-09T06:00:09.633Z,9.22
2023-04-09T06:02:48.932Z,9.18
2023-04-09T06:05:17.281Z,9.28
2023-04-09T06:07:46.706Z,9.33
2023-04-09T06:10:15.539Z,9.32
2023-04-09T06:12:43.667Z,9.30
2023-04-09T06:15:12.551Z,9.35
2023-04-09T06:17:40.892Z,9.37
2023-04-09T06:20:10.610Z,9.46
2023-04-09T06:22:38.806Z,9.31
2023-04-09T06:25:09.439Z,9.40
2023-04-09T06:27:37.611Z,9.59
2023-04-09T06:30:07.225Z,9.56
2023-04-09T06:32:46.794Z,9.55
2023-04-09T06:35:19.484Z,9.57
2023-04-09T06:37:47.583Z,9.53
2023-04-09T06:40:17.201Z,9.34
2023-04-09T06:42:45.277Z,9.50
2023-04-09T06:45:28.251Z,9.68
2023-04-09T06:47:56.958Z,9.64
2023-04-09T06:50:25.219Z,9.75
2023-04-09T06:52:53.692Z,9.71
2023-04-09T06:55:23.144Z,9.79
2023-04-09T06:57:51.166Z,9.80
2023-04-09T07:00:19.496Z,9.81
2023-04-09T07:02:47.736Z,9.90
2023-04-09T07:05:16.195Z,9.79
2023-04-09T07:07:44.227Z,9.81
2023-04-09T07:10:12.530Z,10.11
2023-04-09T07:12:42.117Z,10.20
2023-04-09T07:15:10.717Z,10.27
2023-04-09T07:17:38.854Z,10.31
2023-04-09T07:20:08.332Z,10.36
2023-04-09T07:22:37.311Z,10.41
2023-04-09T07:25:06.430Z,10.54
2023-04-09T07:27:34.553Z,10.56
2023-04-09T07:30:10.601Z,10.57
2023-04-09T07:32:39.007Z,10.60
2023-04-09T07:35:10.559Z,10.74
2023-04-09T07:37:38.848Z,10.89
2023-04-09T07:40:08.877Z,11.04
2023-04-09T07:42:39.009Z,11.07
2023-04-09T07:45:09.907Z,10.96
2023-04-09T07:47:38.951Z,11.24
2023-04-09T07:50:08.981Z,11.41
2023-04-09T07:52:37.235Z,11.58
2023-04-09T07:55:06.550Z,11.76
2023-04-09T07:57:34.670Z,11.65
2023-04-09T08:00:03.561Z,11.31
2023-04-09T08:02:42.740Z,11.54
2023-04-09T08:05:11.764Z,11.69
2023-04-09T08:07:39.836Z,11.69
2023-04-09T08:10:13.972Z,11.82
2023-04-09T08:12:42.121Z,11.82
2023-04-09T08:15:11.891Z,11.83
2023-04-09T08:17:39.948Z,11.88
2023-04-09T08:20:11.285Z,11.80
2023-04-09T08:22:41.142Z,11.62
2023-04-09T08:25:09.797Z,11.93
2023-04-09T08:27:39.772Z,11.92
2023-04-09T08:30:09.931Z,11.67
2023-04-09T08:32:37.919Z,11.72
2023-04-09T08:35:11.651Z,11.78
2023-04-09T08:37:41.065Z,11.82
2023-04-09T08:40:11.601Z,11.89
2023-04-09T08:42:45.852Z,11.65
2023-04-09T08:45:14.590Z,11.82
2023-04-09T08:47:44.547Z,11.84
2023-04-09T08:50:12.634Z,11.93
2023-04-09T08:52:42.601Z,11.86
2023-04-09T08:55:13.420Z,11.80
2023-04-09T08:57:42.496Z,11.94
2023-04-09T09:00:12.261Z,11.91
2023-04-09T09:03:00.756Z,12.06
2023-04-09T09:05:37.818Z,12.16
2023-04-09T09:08:09.669Z,12.42
2023-04-09T09:10:40.659Z,12.48
2023-04-09T09:13:24.376Z,12.44
2023-04-09T09:15:55.273Z,12.37
2023-04-09T09:18:39.416Z,12.37
2023-04-09T09:21:14.901Z,12.04
2023-04-09T09:23:45.009Z,11.99
2023-04-09T09:26:16.519Z,12.16
2023-04-09T09:28:45.417Z,12.31
2023-04-09T09:31:14.320Z,12.34
2023-04-09T09:33:42.566Z,12.40
2023-04-09T09:36:11.309Z,12.22
2023-04-09T09:38:56.156Z,12.29
2023-04-09T09:41:25.872Z,12.33
2023-04-09T09:43:54.034Z,12.40
2023-04-09T09:46:23.929Z,12.50
2023-04-09T09:48:52.232Z,12.37
2023-04-09T09:51:28.757Z,12.23
2023-04-09T09:53:59.140Z,12.31
2023-04-09T09:56:33.400Z,12.14
2023-04-09T09:59:11.817Z,12.18
2023-04-09T10:01:41.497Z,12.34
2023-04-09T10:04:14.391Z,12.18
2023-04-09T10:06:46.027Z,12.31
2023-04-09T10:09:15.576Z,12.41
2023-04-09T10:11:45.696Z,12.41
2023-04-09T10:14:14.634Z,12.35
2023-04-09T10:16:42.971Z,12.71
2023-04-09T10:19:14.160Z,13.07
2023-04-09T10:21:53.360Z,13.38
2023-04-09T10:24:23.896Z,13.47
2023-04-09T10:26:55.700Z,13.62
2023-04-09T10:29:29.871Z,13.58
2023-04-09T10:32:07.320Z,13.66
2023-04-09T10:35:05.702Z,13.72
2023-04-09T10:37:33.803Z,14.00
2023-04-09T10:40:05.737Z,14.09
2023-04-09T10:42:38.861Z,14.25
2023-04-09T10:45:09.872Z,14.34
2023-04-09T10:47:40.545Z,14.45
2023-04-09T10:50:24.070Z,14.51
2023-04-09T10:53:19.110Z,14.72
2023-04-09T10:55:51.991Z,14.74
2023-04-09T10:58:20.847Z,14.60
2023-04-09T11:00:51.681Z,14.76
2023-04-09T11:03:25.800Z,14.80
2023-04-09T11:06:00.956Z,14.85
2023-04-09T11:08:34.037Z,14.82
2023-04-09T11:11:04.109Z,14.94
2023-04-09T11:13:34.134Z,14.88
2023-04-09T11:16:04.171Z,14.91
2023-04-09T11:18:34.487Z,14.91
2023-04-09T11:21:04.206Z,14.86
2023-04-09T11:23:34.006Z,14.84
2023-04-09T11:26:03.437Z,14.87
2023-04-09T11:28:31.505Z,14.86
2023-04-09T11:30:59.562Z,14.83
2023-04-09T11:33:34.096Z,14.86
2023-04-09T11:36:02.697Z,14.86
2023-04-09T11:38:32.729Z,14.86
2023-04-09T11:41:02.579Z,14.83
2023-04-09T11:43:32.227Z,14.79
2023-04-09T11:46:00.913Z,14.81
2023-04-09T11:48:29.012Z,14.77
2023-04-09T11:50:57.312Z,14.76
2023-04-09T11:53:31.066Z,14.78
2023-04-09T11:55:59.199Z,14.80
2023-04-09T11:58:28.277Z,14.89
2023-04-09T12:01:00.117Z,14.88
2023-04-09T12:03:32.820Z,14.89
2023-04-09T12:06:03.646Z,14.95
2023-04-09T12:08:34.458Z,15.10
2023-04-09T12:11:11.249Z,15.30
2023-04-09T12:13:42.880Z,15.38
2023-04-09T12:16:13.104Z,15.40
2023-04-09T12:18:43.924Z,15.13
2023-04-09T12:21:12.128Z,15.19
2023-04-09T12:23:40.778Z,15.37
2023-04-09T12:26:08.897Z,15.32
2023-04-09T12:28:36.951Z,15.24
2023-04-09T12:31:05.079Z,15.47
2023-04-09T12:33:34.526Z,15.55
2023-04-09T12:36:02.670Z,15.74
2023-04-09T12:38:31.074Z,15.83
2023-04-09T12:40:59.113Z,15.66
2023-04-09T12:43:27.128Z,15.81
2023-04-09T12:45:55.145Z,15.94
2023-04-09T12:48:23.282Z,15.96
2023-04-09T12:50:52.675Z,16.01
2023-04-09T12:53:20.722Z,16.08
2023-04-09T12:55:48.754Z,16.14
2023-04-09T12:58:16.806Z,16.26
2023-04-09T13:00:44.936Z,15.90
2023-04-09T13:03:13.430Z,15.73
2023-04-09T13:05:41.835Z,15.82
2023-04-09T13:08:11.317Z,15.86
2023-04-09T13:10:39.737Z,15.93
2023-04-09T13:13:11.977Z,15.93
2023-04-09T13:15:43.154Z,15.91
2023-04-09T13:18:11.402Z,15.80
2023-04-09T13:20:39.557Z,15.87
2023-04-09T13:23:07.661Z,15.88
2023-04-09T13:25:37.051Z,15.74
2023-04-09T13:28:05.404Z,15.80
2023-04-09T13:30:33.603Z,15.69
2023-04-09T13:33:02.462Z,15.61
2023-04-09T13:35:31.596Z,15.31
2023-04-09T13:37:59.716Z,15.00
2023-04-09T13:40:27.977Z,15.05
2023-04-09T13:42:57.344Z,15.15
2023-04-09T13:45:25.417Z,15.27
2023-04-09T13:47:53.947Z,15.30
2023-04-09T13:50:22.325Z,15.46
2023-04-09T13:52:50.375Z,15.50
2023-04-09T13:55:18.582Z,15.58
2023-04-09T13:57:46.636Z,15.70
2023-04-09T14:00:17.322Z,15.45
2023-04-09T14:02:45.753Z,15.34
2023-04-09T14:05:13.988Z,15.28
2023-04-09T14:07:42.037Z,15.22
2023-04-09T14:10:11.580Z,15.40
2023-04-09T14:12:39.639Z,15.36
2023-04-09T14:15:10.130Z,15.42
2023-04-09T14:17:40.688Z,15.53
2023-04-09T14:20:10.007Z,15.34
2023-04-09T14:22:38.118Z,15.45
2023-04-09T14:25:07.618Z,15.53
2023-04-09T14:27:35.674Z,15.56
2023-04-09T14:30:04.277Z,15.49
2023-04-09T14:32:32.390Z,15.56
2023-04-09T14:35:02.928Z,15.60
2023-04-09T14:37:31.170Z,15.57
2023-04-09T14:39:59.279Z,15.65
2023-04-09T14:42:27.424Z,15.70
2023-04-09T14:44:56.051Z,15.66
2023-04-09T14:47:24.279Z,15.64
2023-04-09T14:49:52.326Z,15.60
2023-04-09T14:52:21.830Z,15.59
2023-04-09T14:54:49.872Z,15.60
2023-04-09T14:57:17.938Z,15.56
2023-04-09T14:59:46.173Z,15.62
2023-04-09T15:02:14.333Z,15.64
2023-04-09T15:04:42.637Z,15.64
2023-04-09T15:07:11.000Z,15.67
2023-04-09T15:09:40.614Z,15.58
2023-04-09T15:12:09.582Z,15.59
2023-04-09T15:14:37.682Z,15.61
2023-04-09T15:17:05.810Z,15.55
2023-04-09T15:19:35.092Z,15.59
2023-04-09T15:22:03.496Z,15.61
2023-04-09T15:24:31.523Z,15.52
2023-04-09T15:27:01.208Z,15.40
2023-04-09T15:29:29.204Z,15.37
2023-04-09T15:31:57.406Z,15.39
2023-04-09T15:34:26.104Z,15.42
2023-04-09T15:36:54.212Z,15.44
2023-04-09T15:39:24.408Z,15.43
2023-04-09T15:41:52.418Z,15.44
2023-04-09T15:44:21.887Z,15.46
2023-04-09T15:46:50.122Z,15.40
2023-04-09T15:49:19.395Z,15.39
2023-04-09T15:51:47.618Z,15.39
2023-04-09T15:54:15.766Z,15.43
2023-04-09T15:56:43.828Z,15.43
2023-04-09T15:59:11.901Z,15.44
2023-04-09T16:01:41.419Z,15.24
2023-04-09T16:04:09.554Z,15.26
2023-04-09T16:06:39.534Z,15.40
2023-04-09T16:09:07.588Z,15.45
2023-04-09T16:11:37.421Z,15.45
2023-04-09T16:14:05.723Z,15.44
2023-04-09T16:16:34.964Z,15.33
2023-04-09T16:22:00.711Z,15.32
2023-04-09T16:24:28.871Z,15.18
2023-04-09T16:26:56.921Z,15.25
2023-04-09T16:29:25.605Z,15.23
2023-04-09T16:31:53.769Z,15.29
2023-04-09T16:34:23.214Z,15.38
2023-04-09T16:36:51.552Z,15.20
2023-04-09T16:39:20.320Z,15.21
2023-04-09T16:41:49.318Z,15.26
2023-04-09T16:44:17.343Z,15.30
2023-04-09T16:46:45.401Z,15.32
2023-04-09T16:49:13.611Z,15.40
2023-04-09T16:51:43.027Z,15.30
2023-04-09T16:54:12.688Z,15.29
2023-04-09T16:56:40.846Z,15.27
2023-04-09T16:59:08.946Z,15.29
2023-04-09T17:01:36.973Z,15.29
2023-04-09T17:04:05.167Z,15.39
2023-04-09T17:06:33.383Z,15.29
2023-04-09T17:09:05.217Z,15.26
2023-04-09T17:11:33.529Z,15.22
2023-04-09T17:14:01.567Z,15.22
2023-04-09T17:16:29.772Z,15.24
2023-04-09T17:18:57.841Z,14.98
2023-04-09T17:21:26.346Z,15.08
2023-04-09T17:23:54.413Z,15.03
2023-04-09T17:26:24.700Z,15.09
2023-04-09T17:28:52.945Z,15.03
2023-04-09T17:31:24.153Z,15.00
2023-04-09T17:33:52.860Z,15.01
2023-04-09T17:36:23.747Z,15.03
2023-04-09T17:38:53.243Z,14.99
2023-04-09T17:41:22.780Z,14.98
2023-04-09T17:43:50.784Z,14.95
2023-04-09T17:46:19.326Z,14.91
2023-04-09T17:48:47.509Z,14.95
2023-04-09T17:51:16.467Z,14.89
2023-04-09T17:53:44.559Z,14.86
2023-04-09T17:56:16.751Z,14.86
2023-04-09T17:58:46.500Z,14.82
2023-04-09T18:01:14.678Z,14.80
2023-04-09T18:03:43.184Z,14.78
2023-04-09T18:06:11.677Z,14.71
2023-04-09T18:08:41.621Z,14.70
2023-04-09T18:11:13.192Z,14.64
2023-04-09T18:13:41.860Z,14.54
2023-04-09T18:16:12.467Z,14.55
2023-04-09T18:18:41.270Z,14.46
2023-04-09T18:21:09.815Z,14.38
2023-04-09T18:23:39.518Z,14.23
2023-04-09T18:26:07.706Z,14.08
2023-04-09T18:28:35.868Z,14.08
2023-04-09T18:31:04.152Z,13.91
2023-04-09T18:33:34.190Z,13.70
2023-04-09T18:36:03.226Z,13.63
2023-04-09T18:38:31.636Z,13.56
2023-04-09T18:41:01.146Z,13.38
2023-04-09T18:43:29.197Z,13.29
2023-04-09T18:45:58.327Z,13.23
2023-04-09T18:48:26.840Z,13.25
2023-04-09T18:50:56.408Z,13.21
2023-04-09T18:53:25.057Z,13.21
2023-04-09T18:55:53.151Z,13.22
2023-04-09T18:58:21.459Z,13.16
2023-04-09T19:00:51.411Z,13.24
2023-04-09T19:03:20.131Z,13.29
2023-04-09T19:05:48.562Z,13.28
2023-04-09T19:08:17.915Z,13.38
2023-04-09T19:10:47.488Z,13.42
2023-04-09T19:13:15.602Z,13.47
2023-04-09T19:15:43.646Z,13.48
2023-04-09T19:18:11.684Z,13.50
2023-04-09T19:20:39.703Z,13.48
2023-04-09T19:23:07.703Z,13.44
2023-04-09T19:25:37.127Z,13.40
2023-04-09T19:28:05.889Z,13.36
2023-04-09T19:30:33.975Z,13.38
2023-04-09T19:33:02.041Z,13.45
2023-04-09T19:35:33.244Z,13.43
2023-04-09T19:38:04.152Z,13.34
2023-04-09T19:40:33.024Z,13.35
2023-04-09T19:43:02.579Z,13.28
2023-04-09T19:45:30.866Z,13.30
2023-04-09T19:47:58.993Z,13.27
2023-04-09T19:50:27.337Z,13.26
2023-04-09T19:52:57.501Z,13.22
2023-04-09T19:55:26.032Z,13.14
2023-04-09T19:57:54.151Z,13.17
2023-04-09T20:00:23.664Z,13.20
2023-04-09T20:02:51.841Z,13.26
2023-04-09T20:05:20.978Z,13.21
2023-04-09T20:07:49.337Z,13.17
2023-04-09T20:10:17.803Z,13.13
2023-04-09T20:12:48.886Z,13.12
2023-04-09T20:15:19.940Z,13.08
2023-04-09T20:17:50.758Z,13.10
2023-04-09T20:20:20.882Z,13.06
2023-04-09T20:22:55.700Z,13.06
2023-04-09T20:25:25.323Z,13.04
2023-04-09T20:27:54.679Z,12.99
2023-04-09T20:30:22.874Z,13.01
2023-04-09T20:32:53.171Z,13.03
2023-04-09T20:35:21.563Z,12.95
2023-04-09T20:37:50.022Z,12.95
2023-04-09T20:40:19.478Z,12.93
2023-04-09T20:42:47.469Z,12.96
2023-04-09T20:45:15.704Z,12.90
2023-04-09T20:47:43.768Z,12.87
2023-04-09T20:50:13.510Z,12.89
2023-04-09T20:52:41.821Z,12.85
2023-04-09T20:55:10.487Z,12.84
2023-04-09T20:57:38.544Z,12.86
2023-04-09T21:00:08.653Z,12.79
2023-04-09T21:02:36.836Z,12.74
2023-04-09T21:05:21.333Z,12.61
2023-04-09T21:07:53.191Z,12.59
2023-04-09T21:10:21.354Z,12.41
2023-04-09T21:12:49.427Z,12.27
2023-04-09T21:15:17.662Z,12.11
2023-04-09T21:17:46.389Z,12.05
2023-04-09T21:20:17.473Z,11.95
2023-04-09T21:22:45.719Z,11.85
2023-04-09T21:25:18.398Z,11.81
2023-04-09T21:27:46.724Z,11.75
2023-04-09T21:30:14.761Z,11.72
2023-04-09T21:32:42.843Z,11.74
2023-04-09T21:35:11.123Z,11.77
2023-04-09T21:37:39.297Z,11.86
2023-04-09T21:40:14.067Z,11.90
2023-04-09T21:42:43.766Z,11.94
2023-04-09T21:45:16.928Z,11.97
2023-04-09T21:47:45.466Z,12.00
2023-04-09T21:50:13.681Z,12.02
2023-04-09T21:52:41.879Z,12.08
2023-04-09T21:55:15.895Z,12.08
2023-04-09T21:57:46.056Z,12.13
2023-04-09T22:00:16.283Z,12.15
2023-04-09T22:02:45.080Z,12.15
2023-04-09T22:08:07.128Z,12.04
2023-04-09T22:10:38.282Z,12.08
2023-04-09T22:13:07.964Z,12.15
2023-04-09T22:15:39.253Z,12.14
2023-04-09T22:18:07.322Z,12.14
2023-04-09T22:20:36.723Z,12.13
2023-04-09T22:23:33.400Z,12.04
2023-04-09T22:26:01.988Z,12.11
2023-04-09T22:28:31.423Z,12.05
2023-04-09T22:31:00.268Z,12.10
2023-04-09T22:33:28.797Z,12.05
2023-04-09T22:35:59.326Z,12.06
2023-04-09T22:38:27.758Z,12.07
2023-04-09T22:40:56.005Z,12.04
2023-04-09T22:43:24.240Z,11.99
2023-04-09T22:45:55.895Z,11.98
2023-04-09T22:48:24.562Z,11.96
2023-04-09T22:50:52.639Z,11.95
2023-04-09T22:53:20.800Z,11.87
2023-04-09T22:55:51.709Z,11.84
2023-04-09T22:58:19.991Z,11.86
2023-04-09T23:00:49.595Z,11.83
2023-04-09T23:03:19.254Z,11.84
2023-04-09T23:05:47.585Z,11.85
2023-04-09T23:08:15.743Z,11.77
2023-04-09T23:10:43.744Z,11.75
2023-04-09T23:13:13.868Z,11.72
2023-04-09T23:15:41.976Z,11.67
2023-04-09T23:18:10.394Z,11.68
2023-04-09T23:20:39.800Z,11.65
2023-04-09T23:23:08.523Z,11.69
2023-04-09T23:25:36.532Z,11.72
2023-04-09T23:28:04.616Z,11.66
2023-04-09T23:30:32.966Z,11.56
2023-04-09T23:33:01.094Z,11.47
2023-04-09T23:35:29.200Z,11.38
2023-04-09T23:37:58.767Z,11.26
2023-04-09T23:40:26.794Z,11.08
2023-04-09T23:42:55.753Z,11.08
2023-04-09T23:45:24.284Z,10.93
2023-04-09T23:47:52.798Z,10.77
2023-04-09T23:50:23.069Z,10.71
2023-04-09T23:52:51.500Z,10.61
2023-04-09T23:55:20.905Z,10.65
2023-04-09T23:57:48.987Z,10.60
